createdAt,value
2023-05-24T00:03:19.046Z,13.00
2023-05-24T00:08:11.275Z,12.90
2023-05-24T00:13:03.503Z,12.90
2023-05-24T00:17:56.059Z,12.80
2023-05-24T00:22:48.520Z,12.70
2023-05-24T00:27:40.802Z,12.60
2023-05-24T00:32:33.110Z,12.70
2023-05-24T00:37:26.457Z,12.80
2023-05-24T00:42:18.615Z,12.70
2023-05-24T00:47:10.964Z,12.70
2023-05-24T00:52:03.285Z,12.70
2023-05-24T00:56:56.775Z,12.70
2023-05-24T01:01:50.894Z,12.80
2023-05-24T01:13:15.021Z,12.60
2023-05-24T01:18:24.424Z,12.60
2023-05-24T01:23:26.865Z,12.60
2023-05-24T01:28:22.920Z,12.60
2023-05-24T01:33:19.490Z,12.50
2023-05-24T01:38:16.131Z,12.40
2023-05-24T01:43:18.488Z,12.40
2023-05-24T01:48:19.681Z,12.40
2023-05-24T01:53:14.891Z,12.20
2023-05-24T01:58:10.904Z,12.10
2023-05-24T02:03:10.354Z,12.20
2023-05-24T02:08:09.313Z,12.30
2023-05-24T02:13:01.500Z,12.30
2023-05-24T02:17:54.797Z,12.30
2023-05-24T02:22:46.946Z,12.20
2023-05-24T02:27:42.146Z,12.20
2023-05-24T02:32:37.318Z,12.20
2023-05-24T02:37:29.587Z,12.00
2023-05-24T02:42:21.919Z,12.00
2023-05-24T02:47:14.646Z,11.90
2023-05-24T02:52:07.201Z,11.80
2023-05-24T02:56:59.357Z,11.70
2023-05-24T03:01:51.872Z,11.60
2023-05-24T03:06:44.003Z,11.60
2023-05-24T03:11:36.184Z,11.70
2023-05-24T03:16:28.569Z,11.60
2023-05-24T03:21:21.163Z,11.70
2023-05-24T03:26:13.713Z,11.80
2023-05-24T03:31:06.775Z,11.90
2023-05-24T03:35:59.790Z,11.90
2023-05-24T03:40:53.328Z,12.00
2023-05-24T03:45:45.528Z,12.00
2023-05-24T03:50:37.544Z,12.00
2023-05-24T03:55:29.737Z,11.90
2023-05-24T04:00:22.696Z,11.90
2023-05-24T04:05:16.268Z,11.80
2023-05-24T04:10:08.717Z,11.80
2023-05-24T04:15:01.436Z,12.00
2023-05-24T04:19:54.694Z,12.10
2023-05-24T04:24:47.288Z,12.30
2023-05-24T04:29:40.336Z,12.50
2023-05-24T04:34:36.808Z,12.70
2023-05-24T04:39:30.749Z,12.90
2023-05-24T04:44:22.855Z,13.00
2023-05-24T04:49:15.348Z,13.20
2023-05-24T04:54:10.472Z,13.30
2023-05-24T04:59:02.731Z,13.30
2023-05-24T05:03:54.861Z,13.10
2023-05-24T05:08:47.542Z,13.20
2023-05-24T05:13:39.552Z,13.20
2023-05-24T05:18:34.788Z,13.30
2023-05-24T05:23:27.207Z,13.40
2023-05-24T05:28:20.739Z,13.50
2023-05-24T05:33:13.082Z,13.70
2023-05-24T05:38:08.063Z,13.90
2023-05-24T05:43:02.884Z,14.00
2023-05-24T05:47:55.022Z,14.20
2023-05-24T05:52:47.116Z,14.50
2023-05-24T05:57:39.316Z,15.00
2023-05-24T06:02:31.589Z,15.10
2023-05-24T06:07:26.903Z,16.20
2023-05-24T06:12:18.934Z,17.60
2023-05-24T06:17:11.486Z,18.70
2023-05-24T06:22:03.763Z,20.00
2023-05-24T06:26:56.136Z,20.60
2023-05-24T06:31:51.792Z,19.80
2023-05-24T06:36:47.473Z,18.60
2023-05-24T06:41:40.310Z,18.10
2023-05-24T06:46:32.887Z,19.70
2023-05-24T06:51:25.127Z,22.10
2023-05-24T06:56:17.827Z,23.10
2023-05-24T07:01:10.533Z,21.50
2023-05-24T07:06:03.742Z,20.00
2023-05-24T07:10:56.267Z,20.10
2023-05-24T07:15:49.282Z,20.00
2023-05-24T07:20:41.857Z,19.10
2023-05-24T07:25:34.361Z,18.30
2023-05-24T07:30:32.214Z,17.70
2023-05-24T07:35:25.381Z,17.20
2023-05-24T07:40:17.516Z,16.60
2023-05-24T07:45:10.660Z,16.00
2023-05-24T07:50:04.388Z,15.50
2023-05-24T07:54:56.586Z,15.50
2023-05-24T07:59:48.906Z,15.70
2023-05-24T08:04:41.198Z,15.80
2023-05-24T08:09:35.800Z,15.70
2023-05-24T08:14:28.131Z,15.70
2023-05-24T08:19:21.268Z,15.90
2023-05-24T08:24:13.617Z,16.10
2023-05-24T08:29:06.520Z,15.90
2023-05-24T08:33:59.182Z,16.10
2023-05-24T08:38:51.680Z,16.10
2023-05-24T08:43:44.824Z,16.50
2023-05-24T08:56:49.091Z,17.20
2023-05-24T09:01:42.833Z,17.90
2023-05-24T09:06:35.354Z,18.30
2023-05-24T09:11:28.598Z,18.30
2023-05-24T09:16:21.489Z,18.10
2023-05-24T09:21:14.140Z,18.40
2023-05-24T09:26:10.412Z,21.00
2023-05-24T09:31:07.121Z,22.50
2023-05-24T09:36:01.734Z,25.00
2023-05-24T09:41:00.648Z,27.50
2023-05-24T09:45:54.173Z,26.30
2023-05-24T09:51:09.959Z,25.20
2023-05-24T09:56:10.941Z,23.60
2023-05-24T10:01:08.369Z,23.70
2023-05-24T10:06:02.304Z,23.70
2023-05-24T10:10:56.640Z,22.30
2023-05-24T10:15:48.819Z,21.80
2023-05-24T10:20:42.278Z,22.60
2023-05-24T10:25:38.512Z,23.90
2023-05-24T10:30:41.875Z,26.70
2023-05-24T10:35:38.465Z,26.00
2023-05-24T10:40:32.341Z,25.80
2023-05-24T10:45:51.672Z,25.30
2023-05-24T10:50:45.089Z,25.90
2023-05-24T10:55:57.851Z,25.80
2023-05-24T11:00:53.392Z,27.50
2023-05-24T11:05:49.342Z,30.60
2023-05-24T11:10:43.603Z,29.70
2023-05-24T11:15:36.329Z,28.20
2023-05-24T11:20:28.705Z,26.70
2023-05-24T11:25:22.386Z,25.30
2023-05-24T11:30:16.009Z,24.50
2023-05-24T11:35:12.567Z,23.90
2023-05-24T11:40:05.351Z,23.50
2023-05-24T11:44:59.424Z,23.00
2023-05-24T11:49:55.165Z,22.50
2023-05-24T11:54:48.690Z,23.10
2023-05-24T11:59:41.733Z,23.70
2023-05-24T12:04:35.108Z,23.90
2023-05-24T12:09:29.470Z,23.60
2023-05-24T12:14:27.940Z,23.20
2023-05-24T12:19:32.310Z,22.70
2023-05-24T12:24:27.570Z,22.20
2023-05-24T12:29:20.376Z,21.90
2023-05-24T12:34:13.902Z,21.40
2023-05-24T12:39:18.732Z,21.40
2023-05-24T12:44:14.067Z,21.80
2023-05-24T12:49:06.544Z,22.30
2023-05-24T12:53:58.753Z,22.40
2023-05-24T12:58:50.927Z,21.80
2023-05-24T13:03:43.209Z,21.40
2023-05-24T13:08:35.319Z,21.50
2023-05-24T13:13:28.960Z,21.90
2023-05-24T13:18:21.228Z,21.60
2023-05-24T13:23:13.469Z,21.40
2023-05-24T13:28:05.769Z,21.20
2023-05-24T13:32:59.698Z,21.00
2023-05-24T13:37:54.314Z,20.80
2023-05-24T13:42:46.439Z,20.70
2023-05-24T13:47:40.328Z,19.80
2023-05-24T13:52:33.321Z,19.50
2023-05-24T13:57:31.278Z,19.40
2023-05-24T14:02:32.166Z,19.40
2023-05-24T14:07:24.330Z,19.50
2023-05-24T14:12:16.541Z,19.10
2023-05-24T14:17:08.665Z,19.50
2023-05-24T14:22:03.808Z,19.80
2023-05-24T14:26:55.917Z,20.10
2023-05-24T14:31:48.484Z,20.30
2023-05-24T14:36:42.054Z,20.40
2023-05-24T14:41:34.759Z,19.90
2023-05-24T14:46:27.042Z,20.10
2023-05-24T14:51:19.505Z,19.80
2023-05-24T14:56:14.383Z,19.10
2023-05-24T15:01:09.270Z,18.80
2023-05-24T15:06:01.955Z,18.30
2023-05-24T15:10:54.076Z,18.30
2023-05-24T15:15:54.884Z,18.30
2023-05-24T15:20:47.351Z,18.30
2023-05-24T15:25:40.852Z,18.20
2023-05-24T15:30:32.953Z,18.30
2023-05-24T15:35:25.009Z,18.30
2023-05-24T15:40:18.698Z,18.00
2023-05-24T15:45:12.651Z,17.90
2023-05-24T15:50:06.201Z,17.80
2023-05-24T15:54:59.582Z,17.80
2023-05-24T15:59:51.846Z,17.90
2023-05-24T16:04:44.077Z,17.70
2023-05-24T16:09:36.377Z,17.70
2023-05-24T16:15:00.626Z,17.60
2023-05-24T16:19:52.687Z,17.70
2023-05-24T16:24:45.099Z,17.80
2023-05-24T16:29:37.900Z,17.70
2023-05-24T16:34:29.972Z,17.60
2023-05-24T16:39:22.130Z,17.50
2023-05-24T16:44:17.927Z,17.40
2023-05-24T16:49:10.192Z,17.10
2023-05-24T16:54:02.724Z,17.10
2023-05-24T16:58:54.874Z,17.00
2023-05-24T17:03:48.445Z,17.00
2023-05-24T17:08:41.014Z,16.90
2023-05-24T17:13:33.482Z,16.80
2023-05-24T17:18:33.284Z,16.70
2023-05-24T17:23:33.860Z,16.50
2023-05-24T17:28:29.700Z,16.40
2023-05-24T17:33:23.548Z,16.30
2023-05-24T17:38:16.100Z,16.20
2023-05-24T17:43:08.127Z,16.00
2023-05-24T17:48:00.417Z,15.90
2023-05-24T17:52:52.601Z,15.80
2023-05-24T17:57:44.979Z,15.60
2023-05-24T18:02:37.800Z,15.50
2023-05-24T18:07:30.624Z,15.40
2023-05-24T18:12:22.702Z,15.30
2023-05-24T18:17:15.060Z,15.20
2023-05-24T18:22:07.778Z,15.00
2023-05-24T18:26:59.842Z,14.80
2023-05-24T18:31:51.925Z,14.70
2023-05-24T18:36:44.095Z,14.60
2023-05-24T18:41:36.254Z,14.40
2023-05-24T18:46:29.623Z,14.20
2023-05-24T18:51:22.018Z,14.10
2023-05-24T18:56:14.991Z,13.90
2023-05-24T19:01:07.368Z,13.80
2023-05-24T19:05:59.424Z,13.60
2023-05-24T19:10:51.708Z,13.40
2023-05-24T19:15:44.023Z,13.30
2023-05-24T19:20:36.661Z,13.10
2023-05-24T19:25:28.939Z,13.00
2023-05-24T19:30:21.294Z,12.90
2023-05-24T19:35:13.371Z,12.80
2023-05-24T19:40:06.178Z,12.60
2023-05-24T19:45:04.272Z,12.50
2023-05-24T19:49:57.080Z,12.50
2023-05-24T19:54:50.891Z,12.50
2023-05-24T19:59:46.443Z,12.50
2023-05-24T20:04:42.012Z,12.30
2023-05-24T20:09:34.536Z,12.20
2023-05-24T20:14:28.245Z,12.10
2023-05-24T20:19:21.750Z,12.10
2023-05-24T20:24:14.008Z,11.90
2023-05-24T20:29:06.458Z,11.70
2023-05-24T20:33:58.643Z,11.60
2023-05-24T20:38:51.932Z,11.60
2023-05-24T20:43:44.234Z,11.40
2023-05-24T20:48:43.443Z,11.40
2023-05-24T20:53:35.893Z,11.20
2023-05-24T20:58:30.237Z,11.10
2023-05-24T21:03:22.497Z,11.00
2023-05-24T21:08:14.877Z,10.90
2023-05-24T21:13:07.306Z,10.80
2023-05-24T21:17:59.440Z,10.70
2023-05-24T21:22:51.611Z,10.60
2023-05-24T21:27:44.380Z,10.60
2023-05-24T21:32:36.530Z,10.50
2023-05-24T21:37:28.834Z,10.30
2023-05-24T21:42:21.039Z,10.30
2023-05-24T21:47:16.173Z,10.20
2023-05-24T21:52:08.248Z,10.00
2023-05-24T21:57:01.638Z,10.00
2023-05-24T22:01:53.805Z,9.90
2023-05-24T22:06:46.489Z,9.90
2023-05-24T22:11:38.643Z,9.70
2023-05-24T22:16:30.933Z,9.60
2023-05-24T22:21:24.447Z,9.60
2023-05-24T22:26:16.933Z,9.60
2023-05-24T22:31:10.415Z,9.50
2023-05-24T22:36:02.672Z,9.40
2023-05-24T22:40:54.740Z,9.40
2023-05-24T22:45:46.868Z,9.40
2023-05-24T22:50:39.344Z,9.30
2023-05-24T22:55:31.642Z,9.40
2023-05-24T23:00:24.972Z,9.40
2023-05-24T23:05:17.148Z,9.30
2023-05-24T23:10:10.888Z,9.20
2023-05-24T23:15:03.116Z,9.10
2023-05-24T23:19:55.499Z,9.00
2023-05-24T23:24:47.744Z,8.90
2023-05-24T23:29:40.281Z,8.80
2023-05-24T23:34:35.010Z,8.90
2023-05-24T23:39:27.430Z,8.80
2023-05-24T23:44:24.136Z,8.80
2023-05-24T23:49:16.697Z,8.90
2023-05-24T23:54:08.785Z,8.70
2023-05-24T23:59:01.533Z,8.60
